sensor_id;sensor_type;location;lat;lon;timestamp;pressure;altitude;pressure_sealevel;temperature;humidity
11395;BME280;5753;54.402;10.220;2022-07-24T03:53:18;102010.28;;;22.79;43.11
11395;BME280;5753;54.402;10.220;2022-07-24T03:55:44;102003.38;;;22.72;43.25
11395;BME280;5753;54.402;10.220;2022-07-24T03:58:10;102011.72;;;22.98;42.81
11395;BME280;5753;54.402;10.220;2022-07-24T04:00:36;102014.44;;;22.93;43.09
11395;BME280;5753;54.402;10.220;2022-07-24T04:03:02;102027.06;;;22.69;44.03
11395;BME280;5753;54.402;10.220;2022-07-24T04:05:28;102019.19;;;22.07;45.66
11395;BME280;5753;54.402;10.220;2022-07-24T04:07:54;102022.66;;;22.69;44.59
11395;BME280;5753;54.402;10.220;2022-07-24T04:10:20;102025.97;;;22.22;45.19
11395;BME280;5753;54.402;10.220;2022-07-24T04:12:46;102014.72;;;23.28;43.27
11395;BME280;5753;54.402;10.220;2022-07-24T04:15:12;102004.03;;;23.37;43.01
11395;BME280;5753;54.402;10.220;2022-07-24T04:17:42;102012.78;;;23.39;43.03
11395;BME280;5753;54.402;10.220;2022-07-24T04:20:09;102007.50;;;23.39;43.14
11395;BME280;5753;54.402;10.220;2022-07-24T04:22:36;102003.00;;;23.45;42.93
11395;BME280;5753;54.402;10.220;2022-07-24T04:25:02;101996.09;;;23.84;42.13
11395;BME280;5753;54.402;10.220;2022-07-24T04:27:28;101988.16;;;24.29;41.43
11395;BME280;5753;54.402;10.220;2022-07-24T04:29:55;101986.72;;;24.13;41.65
11395;BME280;5753;54.402;10.220;2022-07-24T04:32:21;101979.19;;;24.36;41.46
11395;BME280;5753;54.402;10.220;2022-07-24T04:34:47;101975.75;;;24.70;40.61
11395;BME280;5753;54.402;10.220;2022-07-24T04:37:13;101976.06;;;24.56;40.97
11395;BME280;5753;54.402;10.220;2022-07-24T04:39:39;101986.53;;;24.59;41.07
11395;BME280;5753;54.402;10.220;2022-07-24T04:42:05;101995.56;;;24.09;41.83
11395;BME280;5753;54.402;10.220;2022-07-24T04:44:31;101990.06;;;24.58;41.34
11395;BME280;5753;54.402;10.220;2022-07-24T04:46:57;101989.81;;;24.33;41.54
11395;BME280;5753;54.402;10.220;2022-07-24T04:49:23;101997.13;;;23.77;42.85
11395;BME280;5753;54.402;10.220;2022-07-24T04:51:49;101991.38;;;23.57;43.60
11395;BME280;5753;54.402;10.220;2022-07-24T04:54:15;101999.97;;;24.08;42.65
11395;BME280;5753;54.402;10.220;2022-07-24T04:56:42;101988.63;;;24.05;42.76
11395;BME280;5753;54.402;10.220;2022-07-24T04:59:08;101995.16;;;23.89;43.16
11395;BME280;5753;54.402;10.220;2022-07-24T05:01:34;101988.78;;;24.76;41.53
11395;BME280;5753;54.402;10.220;2022-07-24T05:04:00;101986.19;;;25.42;39.97
11395;BME280;5753;54.402;10.220;2022-07-24T05:06:26;101984.63;;;25.01;40.37
11395;BME280;5753;54.402;10.220;2022-07-24T05:08:52;101985.78;;;25.89;38.97
11395;BME280;5753;54.402;10.220;2022-07-24T05:11:18;101982.38;;;25.53;39.30
11395;BME280;5753;54.402;10.220;2022-07-24T05:13:44;101982.38;;;25.22;40.41
11395;BME280;5753;54.402;10.220;2022-07-24T05:16:10;101981.06;;;25.36;40.49
11395;BME280;5753;54.402;10.220;2022-07-24T05:18:37;101984.09;;;25.23;40.07
11395;BME280;5753;54.402;10.220;2022-07-24T05:21:03;101984.09;;;25.55;40.24
11395;BME280;5753;54.402;10.220;2022-07-24T05:23:29;101991.50;;;25.41;40.66
11395;BME280;5753;54.402;10.220;2022-07-24T05:25:55;101991.69;;;23.86;42.92
11395;BME280;5753;54.402;10.220;2022-07-24T05:28:21;101987.94;;;25.42;40.49
11395;BME280;5753;54.402;10.220;2022-07-24T05:30:47;101993.91;;;24.05;43.09
11395;BME280;5753;54.402;10.220;2022-07-24T05:33:13;101986.28;;;25.72;40.13
11395;BME280;5753;54.402;10.220;2022-07-24T05:35:39;101983.72;;;24.68;41.91
11395;BME280;5753;54.402;10.220;2022-07-24T05:38:05;101980.56;;;25.24;40.51
11395;BME280;5753;54.402;10.220;2022-07-24T05:40:32;101983.03;;;25.30;41.00
11395;BME280;5753;54.402;10.220;2022-07-24T05:42:58;101987.28;;;24.29;42.60
11395;BME280;5753;54.402;10.220;2022-07-24T05:45:24;101989.97;;;24.64;42.36
11395;BME280;5753;54.402;10.220;2022-07-24T05:47:50;101980.31;;;25.95;40.21
11395;BME280;5753;54.402;10.220;2022-07-24T05:50:16;101987.66;;;25.22;41.08
11395;BME280;5753;54.402;10.220;2022-07-24T05:52:43;101976.00;;;25.61;40.84
11395;BME280;5753;54.402;10.220;2022-07-24T05:55:09;101986.91;;;24.81;42.25
11395;BME280;5753;54.402;10.220;2022-07-24T05:57:35;101993.41;;;24.29;43.46
11395;BME280;5753;54.402;10.220;2022-07-24T06:00:02;101984.25;;;26.39;39.90
11395;BME280;5753;54.402;10.220;2022-07-24T06:02:28;101982.28;;;26.46;38.75
11395;BME280;5753;54.402;10.220;2022-07-24T06:04:54;101980.09;;;26.01;39.95
11395;BME280;5753;54.402;10.220;2022-07-24T06:07:20;101982.75;;;25.06;41.92
11395;BME280;5753;54.402;10.220;2022-07-24T06:09:46;101975.19;;;24.56;43.10
11395;BME280;5753;54.402;10.220;2022-07-24T06:12:13;101972.44;;;25.62;41.14
11395;BME280;5753;54.402;10.220;2022-07-24T06:14:39;101975.38;;;25.83;40.22
11395;BME280;5753;54.402;10.220;2022-07-24T06:17:05;101964.81;;;26.40;39.61
11395;BME280;5753;54.402;10.220;2022-07-24T06:19:31;101961.41;;;27.66;37.62
11395;BME280;5753;54.402;10.220;2022-07-24T06:21:57;101962.25;;;27.41;37.77
11395;BME280;5753;54.402;10.220;2022-07-24T06:24:23;101962.03;;;26.45;38.98
11395;BME280;5753;54.402;10.220;2022-07-24T06:26:49;101959.63;;;25.80;39.52
11395;BME280;5753;54.402;10.220;2022-07-24T06:29:15;101963.56;;;25.65;40.66
11395;BME280;5753;54.402;10.220;2022-07-24T06:31:41;101945.34;;;26.43;38.74
11395;BME280;5753;54.402;10.220;2022-07-24T06:34:07;101947.94;;;26.44;39.42
11395;BME280;5753;54.402;10.220;2022-07-24T06:36:33;101952.88;;;26.81;37.97
11395;BME280;5753;54.402;10.220;2022-07-24T06:38:59;101954.09;;;28.17;35.36
11395;BME280;5753;54.402;10.220;2022-07-24T06:41:25;101949.94;;;27.65;36.46
11395;BME280;5753;54.402;10.220;2022-07-24T06:43:51;101957.75;;;27.20;36.80
11395;BME280;5753;54.402;10.220;2022-07-24T06:46:18;101952.13;;;26.78;36.74
11395;BME280;5753;54.402;10.220;2022-07-24T06:48:44;101957.88;;;26.64;37.70
11395;BME280;5753;54.402;10.220;2022-07-24T06:51:10;101955.78;;;25.90;39.21
11395;BME280;5753;54.402;10.220;2022-07-24T06:53:36;101952.38;;;26.16;38.58
11395;BME280;5753;54.402;10.220;2022-07-24T06:56:03;101960.13;;;25.30;39.81
11395;BME280;5753;54.402;10.220;2022-07-24T06:58:29;101954.25;;;26.40;38.49
11395;BME280;5753;54.402;10.220;2022-07-24T07:00:55;101952.69;;;26.87;38.17
11395;BME280;5753;54.402;10.220;2022-07-24T07:03:21;101950.72;;;28.36;35.52
11395;BME280;5753;54.402;10.220;2022-07-24T07:05:47;101944.22;;;27.99;35.84
11395;BME280;5753;54.402;10.220;2022-07-24T07:08:14;101951.50;;;26.15;38.35
11395;BME280;5753;54.402;10.220;2022-07-24T07:10:40;101952.75;;;26.59;37.19
11395;BME280;5753;54.402;10.220;2022-07-24T07:13:06;101951.44;;;26.73;36.38
11395;BME280;5753;54.402;10.220;2022-07-24T07:15:32;101952.88;;;27.81;34.98
11395;BME280;5753;54.402;10.220;2022-07-24T07:17:58;101952.47;;;27.20;35.98
11395;BME280;5753;54.402;10.220;2022-07-24T07:20:24;101950.66;;;27.45;35.02
11395;BME280;5753;54.402;10.220;2022-07-24T07:22:50;101950.81;;;29.17;33.36
11395;BME280;5753;54.402;10.220;2022-07-24T07:25:16;101946.06;;;28.63;34.28
11395;BME280;5753;54.402;10.220;2022-07-24T07:27:42;101947.84;;;28.18;35.02
11395;BME280;5753;54.402;10.220;2022-07-24T07:30:09;101949.88;;;29.59;33.37
11395;BME280;5753;54.402;10.220;2022-07-24T07:32:35;101956.47;;;29.69;33.07
11395;BME280;5753;54.402;10.220;2022-07-24T07:35:02;101947.69;;;29.48;33.25
11395;BME280;5753;54.402;10.220;2022-07-24T07:37:28;101945.88;;;28.67;34.34
11395;BME280;5753;54.402;10.220;2022-07-24T07:39:54;101955.25;;;30.14;32.73
11395;BME280;5753;54.402;10.220;2022-07-24T07:42:20;101951.91;;;29.91;32.46
11395;BME280;5753;54.402;10.220;2022-07-24T07:44:46;101938.31;;;29.97;32.14
11395;BME280;5753;54.402;10.220;2022-07-24T07:47:14;101936.31;;;30.02;32.67
11395;BME280;5753;54.402;10.220;2022-07-24T07:49:40;101935.84;;;29.74;32.92
11395;BME280;5753;54.402;10.220;2022-07-24T07:52:06;101943.00;;;29.14;34.02
11395;BME280;5753;54.402;10.220;2022-07-24T07:54:32;101939.66;;;30.61;32.11
11395;BME280;5753;54.402;10.220;2022-07-24T07:56:58;101937.22;;;30.74;32.11
11395;BME280;5753;54.402;10.220;2022-07-24T07:59:24;101935.16;;;28.05;36.15
11395;BME280;5753;54.402;10.220;2022-07-24T08:01:50;101933.81;;;28.80;35.20
11395;BME280;5753;54.402;10.220;2022-07-24T08:04:16;101934.28;;;29.70;34.13
11395;BME280;5753;54.402;10.220;2022-07-24T08:06:43;101925.81;;;29.02;34.67
11395;BME280;5753;54.402;10.220;2022-07-24T08:09:09;101924.84;;;29.24;35.03
11395;BME280;5753;54.402;10.220;2022-07-24T08:11:35;101925.91;;;31.69;31.48
11395;BME280;5753;54.402;10.220;2022-07-24T08:14:01;101929.84;;;29.11;35.25
11395;BME280;5753;54.402;10.220;2022-07-24T08:16:27;101926.94;;;29.17;35.08
11395;BME280;5753;54.402;10.220;2022-07-24T08:18:53;101926.69;;;29.03;35.47
11395;BME280;5753;54.402;10.220;2022-07-24T08:21:19;101922.25;;;30.18;33.96
11395;BME280;5753;54.402;10.220;2022-07-24T08:23:46;101923.63;;;29.12;35.52
11395;BME280;5753;54.402;10.220;2022-07-24T08:26:12;101917.28;;;31.81;32.13
11395;BME280;5753;54.402;10.220;2022-07-24T08:28:39;101931.00;;;30.02;34.29
11395;BME280;5753;54.402;10.220;2022-07-24T08:31:05;101930.97;;;29.65;35.15
11395;BME280;5753;54.402;10.220;2022-07-24T08:33:31;101925.03;;;30.87;34.07
11395;BME280;5753;54.402;10.220;2022-07-24T08:35:57;101926.94;;;29.75;34.75
11395;BME280;5753;54.402;10.220;2022-07-24T08:38:23;101923.84;;;31.43;33.15
11395;BME280;5753;54.402;10.220;2022-07-24T08:40:50;101921.88;;;32.41;31.59
11395;BME280;5753;54.402;10.220;2022-07-24T08:43:16;101921.31;;;32.20;30.85
11395;BME280;5753;54.402;10.220;2022-07-24T08:45:43;101917.38;;;32.87;30.73
11395;BME280;5753;54.402;10.220;2022-07-24T08:48:12;101923.44;;;32.75;30.73
11395;BME280;5753;54.402;10.220;2022-07-24T08:50:42;101925.00;;;32.79;30.53
11395;BME280;5753;54.402;10.220;2022-07-24T08:53:09;101924.41;;;31.97;31.68
11395;BME280;5753;54.402;10.220;2022-07-24T08:55:36;101923.53;;;32.43;31.15
11395;BME280;5753;54.402;10.220;2022-07-24T08:58:03;101920.72;;;31.35;32.21
11395;BME280;5753;54.402;10.220;2022-07-24T09:00:30;101920.44;;;32.04;31.70
11395;BME280;5753;54.402;10.220;2022-07-24T09:02:57;101923.91;;;33.26;30.19
11395;BME280;5753;54.402;10.220;2022-07-24T09:05:23;101923.09;;;32.81;31.01
11395;BME280;5753;54.402;10.220;2022-07-24T09:07:49;101914.97;;;32.82;30.58
11395;BME280;5753;54.402;10.220;2022-07-24T09:10:17;101916.75;;;33.40;30.06
11395;BME280;5753;54.402;10.220;2022-07-24T09:12:45;101918.38;;;32.09;30.89
11395;BME280;5753;54.402;10.220;2022-07-24T09:17:52;101908.03;;;32.94;29.92
11395;BME280;5753;54.402;10.220;2022-07-24T09:20:19;101901.19;;;33.33;29.79
11395;BME280;5753;54.402;10.220;2022-07-24T09:22:46;101893.34;;;32.27;30.59
11395;BME280;5753;54.402;10.220;2022-07-24T09:25:24;101898.75;;;32.10;30.62
11395;BME280;5753;54.402;10.220;2022-07-24T09:30:30;101889.31;;;33.51;28.75
11395;BME280;5753;54.402;10.220;2022-07-24T09:35:42;101885.16;;;31.67;31.67
11395;BME280;5753;54.402;10.220;2022-07-24T09:38:11;101887.13;;;31.48;31.16
11395;BME280;5753;54.402;10.220;2022-07-24T09:41:00;101882.94;;;32.07;30.52
11395;BME280;5753;54.402;10.220;2022-07-24T09:43:28;101880.50;;;34.84;27.78
11395;BME280;5753;54.402;10.220;2022-07-24T09:46:09;101880.69;;;34.68;27.62
11395;BME280;5753;54.402;10.220;2022-07-24T09:51:09;101875.44;;;34.66;27.67
11395;BME280;5753;54.402;10.220;2022-07-24T09:53:37;101879.28;;;32.39;30.29
11395;BME280;5753;54.402;10.220;2022-07-24T09:56:08;101883.59;;;32.86;30.03
11395;BME280;5753;54.402;10.220;2022-07-24T09:58:38;101870.19;;;34.78;27.72
11395;BME280;5753;54.402;10.220;2022-07-24T10:01:06;101869.44;;;33.69;28.17
11395;BME280;5753;54.402;10.220;2022-07-24T10:03:35;101869.16;;;35.06;27.11
11395;BME280;5753;54.402;10.220;2022-07-24T10:06:04;101866.97;;;35.23;26.58
11395;BME280;5753;54.402;10.220;2022-07-24T10:08:32;101860.19;;;34.41;27.70
11395;BME280;5753;54.402;10.220;2022-07-24T10:10:59;101863.09;;;35.40;27.08
11395;BME280;5753;54.402;10.220;2022-07-24T10:13:26;101862.59;;;35.22;26.82
11395;BME280;5753;54.402;10.220;2022-07-24T10:16:21;101864.16;;;35.50;26.74
11395;BME280;5753;54.402;10.220;2022-07-24T10:18:56;101863.31;;;35.74;26.39
11395;BME280;5753;54.402;10.220;2022-07-24T10:21:27;101863.03;;;36.83;25.22
11395;BME280;5753;54.402;10.220;2022-07-24T10:24:20;101860.44;;;38.03;24.16
11395;BME280;5753;54.402;10.220;2022-07-24T10:27:03;101861.09;;;34.80;27.73
11395;BME280;5753;54.402;10.220;2022-07-24T10:29:33;101854.59;;;36.31;25.78
11395;BME280;5753;54.402;10.220;2022-07-24T10:32:00;101859.53;;;35.52;27.11
11395;BME280;5753;54.402;10.220;2022-07-24T10:34:33;101854.25;;;37.04;25.26
11395;BME280;5753;54.402;10.220;2022-07-24T10:42:21;101846.72;;;35.69;26.16
11395;BME280;5753;54.402;10.220;2022-07-24T10:47:39;101844.47;;;35.99;26.19
11395;BME280;5753;54.402;10.220;2022-07-24T10:50:06;101837.38;;;35.98;26.26
11395;BME280;5753;54.402;10.220;2022-07-24T10:52:33;101837.13;;;37.16;25.54
11395;BME280;5753;54.402;10.220;2022-07-24T10:55:32;101836.75;;;38.18;24.16
11395;BME280;5753;54.402;10.220;2022-07-24T10:57:59;101835.81;;;37.76;25.01
11395;BME280;5753;54.402;10.220;2022-07-24T11:00:34;101832.91;;;35.86;26.60
11395;BME280;5753;54.402;10.220;2022-07-24T11:03:07;101828.06;;;34.02;28.24
11395;BME280;5753;54.402;10.220;2022-07-24T11:05:38;101825.69;;;35.62;26.55
11395;BME280;5753;54.402;10.220;2022-07-24T11:08:28;101819.28;;;37.15;25.40
11395;BME280;5753;54.402;10.220;2022-07-24T11:11:05;101806.53;;;36.50;25.69
11395;BME280;5753;54.402;10.220;2022-07-24T11:21:31;101788.03;;;35.88;26.48
11395;BME280;5753;54.402;10.220;2022-07-24T11:27:14;101796.66;;;38.66;24.62
11395;BME280;5753;54.402;10.220;2022-07-24T11:29:42;101790.44;;;38.03;23.57
11395;BME280;5753;54.402;10.220;2022-07-24T11:32:10;101779.47;;;36.98;25.05
11395;BME280;5753;54.402;10.220;2022-07-24T11:34:38;101765.28;;;35.81;26.21
11395;BME280;5753;54.402;10.220;2022-07-24T11:37:05;101769.97;;;35.90;26.93
11395;BME280;5753;54.402;10.220;2022-07-24T11:39:39;101758.97;;;36.28;26.16
11395;BME280;5753;54.402;10.220;2022-07-24T11:42:07;101760.91;;;34.45;27.92
11395;BME280;5753;54.402;10.220;2022-07-24T11:44:35;101754.00;;;35.64;26.82
11395;BME280;5753;54.402;10.220;2022-07-24T11:49:42;101751.91;;;38.54;23.88
11395;BME280;5753;54.402;10.220;2022-07-24T11:52:14;101753.84;;;40.19;22.02
11395;BME280;5753;54.402;10.220;2022-07-24T11:54:41;101756.78;;;39.00;23.12
11395;BME280;5753;54.402;10.220;2022-07-24T11:57:23;101747.41;;;39.74;22.58
11395;BME280;5753;54.402;10.220;2022-07-24T11:59:51;101747.25;;;39.75;22.55
11395;BME280;5753;54.402;10.220;2022-07-24T12:02:18;101743.47;;;39.09;22.72
11395;BME280;5753;54.402;10.220;2022-07-24T12:04:45;101737.09;;;39.10;22.51
11395;BME280;5753;54.402;10.220;2022-07-24T12:07:15;101737.34;;;40.32;21.14
11395;BME280;5753;54.402;10.220;2022-07-24T12:09:50;101728.34;;;37.09;24.86
11395;BME280;5753;54.402;10.220;2022-07-24T12:12:47;101720.47;;;38.13;23.73
11395;BME280;5753;54.402;10.220;2022-07-24T12:15:14;101713.47;;;40.18;21.82
11395;BME280;5753;54.402;10.220;2022-07-24T12:18:00;101714.69;;;40.80;20.75
11395;BME280;5753;54.402;10.220;2022-07-24T12:23:03;101710.69;;;36.50;25.11
11395;BME280;5753;54.402;10.220;2022-07-24T12:25:30;101700.63;;;39.34;22.14
11395;BME280;5753;54.402;10.220;2022-07-24T12:30:34;101704.16;;;40.49;21.24
11395;BME280;5753;54.402;10.220;2022-07-24T12:33:07;101708.16;;;40.36;21.66
11395;BME280;5753;54.402;10.220;2022-07-24T12:38:29;101704.84;;;37.33;24.45
11395;BME280;5753;54.402;10.220;2022-07-24T12:44:18;101709.16;;;38.40;23.27
11395;BME280;5753;54.402;10.220;2022-07-24T12:46:22;101717.75;;;38.95;23.01
11395;BME280;5753;54.402;10.220;2022-07-24T12:51:55;101703.34;;;39.34;22.65
11395;BME280;5753;54.402;10.220;2022-07-24T12:54:33;101693.41;;;39.64;22.64
11395;BME280;5753;54.402;10.220;2022-07-24T12:57:01;101700.28;;;37.02;25.67
11395;BME280;5753;54.402;10.220;2022-07-24T12:59:32;101698.78;;;38.35;24.49
11395;BME280;5753;54.402;10.220;2022-07-24T13:02:06;101695.78;;;36.80;25.75
11395;BME280;5753;54.402;10.220;2022-07-24T13:04:39;101686.69;;;38.60;23.86
11395;BME280;5753;54.402;10.220;2022-07-24T13:07:06;101692.00;;;38.41;24.42
11395;BME280;5753;54.402;10.220;2022-07-24T13:09:32;101671.25;;;39.60;22.61
11395;BME280;5753;54.402;10.220;2022-07-24T13:11:59;101676.63;;;40.36;21.76
11395;BME280;5753;54.402;10.220;2022-07-24T13:14:26;101681.00;;;38.23;23.39
11395;BME280;5753;54.402;10.220;2022-07-24T13:16:54;101676.19;;;37.43;24.66
11395;BME280;5753;54.402;10.220;2022-07-24T13:19:21;101667.50;;;35.26;27.59
11395;BME280;5753;54.402;10.220;2022-07-24T13:21:48;101654.00;;;35.98;26.70
11395;BME280;5753;54.402;10.220;2022-07-24T13:24:16;101655.34;;;36.93;25.26
11395;BME280;5753;54.402;10.220;2022-07-24T13:26:43;101655.53;;;36.46;25.88
11395;BME280;5753;54.402;10.220;2022-07-24T13:29:10;101659.50;;;36.18;25.95
11395;BME280;5753;54.402;10.220;2022-07-24T13:31:37;101660.50;;;35.12;27.43
11395;BME280;5753;54.402;10.220;2022-07-24T13:34:03;101649.13;;;33.18;29.80
11395;BME280;5753;54.402;10.220;2022-07-24T13:36:29;101652.72;;;34.47;28.69
11395;BME280;5753;54.402;10.220;2022-07-24T13:38:56;101653.19;;;36.53;25.94
11395;BME280;5753;54.402;10.220;2022-07-24T13:41:22;101646.63;;;34.94;28.51
11395;BME280;5753;54.402;10.220;2022-07-24T13:43:49;101655.75;;;36.32;26.49
11395;BME280;5753;54.402;10.220;2022-07-24T13:46:16;101653.41;;;36.39;26.39
11395;BME280;5753;54.402;10.220;2022-07-24T13:48:43;101640.00;;;38.60;24.55
11395;BME280;5753;54.402;10.220;2022-07-24T13:51:10;101636.56;;;38.98;23.64
11395;BME280;5753;54.402;10.220;2022-07-24T13:53:36;101640.59;;;36.31;26.15
11395;BME280;5753;54.402;10.220;2022-07-24T13:56:05;101638.50;;;35.31;27.40
11395;BME280;5753;54.402;10.220;2022-07-24T13:58:31;101632.53;;;36.20;26.49
11395;BME280;5753;54.402;10.220;2022-07-24T14:00:59;101622.44;;;35.31;27.13
11395;BME280;5753;54.402;10.220;2022-07-24T14:03:25;101628.16;;;36.08;26.72
11395;BME280;5753;54.402;10.220;2022-07-24T14:05:51;101615.94;;;36.26;26.45
11395;BME280;5753;54.402;10.220;2022-07-24T14:08:17;101623.38;;;36.11;26.44
11395;BME280;5753;54.402;10.220;2022-07-24T14:10:44;101625.69;;;35.93;26.20
11395;BME280;5753;54.402;10.220;2022-07-24T14:13:10;101629.66;;;35.07;27.53
11395;BME280;5753;54.402;10.220;2022-07-24T14:15:37;101624.72;;;35.48;27.45
11395;BME280;5753;54.402;10.220;2022-07-24T14:18:03;101624.25;;;37.43;25.06
11395;BME280;5753;54.402;10.220;2022-07-24T14:20:29;101619.16;;;37.29;25.58
11395;BME280;5753;54.402;10.220;2022-07-24T14:22:55;101619.72;;;38.46;24.21
11395;BME280;5753;54.402;10.220;2022-07-24T14:25:21;101618.13;;;38.93;23.36
11395;BME280;5753;54.402;10.220;2022-07-24T14:27:48;101622.78;;;39.59;22.61
11395;BME280;5753;54.402;10.220;2022-07-24T14:30:14;101623.03;;;37.98;24.59
11395;BME280;5753;54.402;10.220;2022-07-24T14:32:40;101618.97;;;37.83;24.90
11395;BME280;5753;54.402;10.220;2022-07-24T14:35:08;101615.44;;;38.13;24.24
11395;BME280;5753;54.402;10.220;2022-07-24T14:37:35;101616.81;;;36.04;26.86
11395;BME280;5753;54.402;10.220;2022-07-24T14:40:03;101616.66;;;35.94;26.78
11395;BME280;5753;54.402;10.220;2022-07-24T14:42:30;101623.72;;;35.84;26.65
11395;BME280;5753;54.402;10.220;2022-07-24T14:44:56;101606.69;;;35.97;26.81
11395;BME280;5753;54.402;10.220;2022-07-24T14:47:22;101611.59;;;36.91;26.10
11395;BME280;5753;54.402;10.220;2022-07-24T14:49:49;101605.81;;;36.30;26.23
11395;BME280;5753;54.402;10.220;2022-07-24T14:52:15;101617.19;;;36.44;26.60
11395;BME280;5753;54.402;10.220;2022-07-24T14:54:44;101602.84;;;34.83;28.79
11395;BME280;5753;54.402;10.220;2022-07-24T14:57:11;101597.88;;;36.28;26.92
11395;BME280;5753;54.402;10.220;2022-07-24T14:59:37;101585.50;;;37.34;25.59
11395;BME280;5753;54.402;10.220;2022-07-24T15:02:04;101588.16;;;38.27;24.72
11395;BME280;5753;54.402;10.220;2022-07-24T15:04:30;101583.00;;;36.89;26.02
11395;BME280;5753;54.402;10.220;2022-07-24T15:06:58;101581.53;;;37.49;25.73
11395;BME280;5753;54.402;10.220;2022-07-24T15:09:25;101578.44;;;38.05;25.31
11395;BME280;5753;54.402;10.220;2022-07-24T15:11:51;101575.72;;;37.33;25.85
11395;BME280;5753;54.402;10.220;2022-07-24T15:14:17;101580.25;;;38.35;24.80
11395;BME280;5753;54.402;10.220;2022-07-24T15:16:43;101571.56;;;39.86;23.44
11395;BME280;5753;54.402;10.220;2022-07-24T15:19:09;101570.66;;;39.49;23.73
11395;BME280;5753;54.402;10.220;2022-07-24T15:21:36;101573.50;;;35.98;27.19
11395;BME280;5753;54.402;10.220;2022-07-24T15:24:05;101575.84;;;36.79;26.45
11395;BME280;5753;54.402;10.220;2022-07-24T15:26:31;101563.63;;;35.98;27.59
11395;BME280;5753;54.402;10.220;2022-07-24T15:28:57;101558.81;;;36.46;26.94
11395;BME280;5753;54.402;10.220;2022-07-24T15:31:24;101560.84;;;38.01;25.31
11395;BME280;5753;54.402;10.220;2022-07-24T15:33:50;101573.84;;;37.24;26.27
11395;BME280;5753;54.402;10.220;2022-07-24T15:36:16;101567.88;;;38.23;25.29
11395;BME280;5753;54.402;10.220;2022-07-24T15:38:42;101565.53;;;38.09;25.28
11395;BME280;5753;54.402;10.220;2022-07-24T15:41:09;101558.03;;;39.59;23.71
11395;BME280;5753;54.402;10.220;2022-07-24T15:43:35;101560.56;;;39.60;24.02
11395;BME280;5753;54.402;10.220;2022-07-24T15:46:01;101555.03;;;38.36;24.97
11395;BME280;5753;54.402;10.220;2022-07-24T15:48:27;101554.97;;;38.27;25.22
11395;BME280;5753;54.402;10.220;2022-07-24T15:50:54;101548.56;;;38.97;24.12
11395;BME280;5753;54.402;10.220;2022-07-24T15:53:20;101547.38;;;38.32;24.54
11395;BME280;5753;54.402;10.220;2022-07-24T15:55:46;101553.78;;;39.47;23.82
11395;BME280;5753;54.402;10.220;2022-07-24T15:58:12;101557.25;;;38.22;24.97
11395;BME280;5753;54.402;10.220;2022-07-24T16:00:38;101547.16;;;38.93;24.66
11395;BME280;5753;54.402;10.220;2022-07-24T16:03:04;101549.16;;;38.91;24.32
11395;BME280;5753;54.402;10.220;2022-07-24T16:05:30;101554.94;;;40.46;22.80
11395;BME280;5753;54.402;10.220;2022-07-24T16:07:58;101553.34;;;41.50;21.97
11395;BME280;5753;54.402;10.220;2022-07-24T16:10:25;101557.94;;;43.33;20.46
11395;BME280;5753;54.402;10.220;2022-07-24T16:12:51;101550.16;;;43.06;21.30
11395;BME280;5753;54.402;10.220;2022-07-24T16:15:17;101556.47;;;46.49;18.04
11395;BME280;5753;54.402;10.220;2022-07-24T16:17:44;101549.34;;;46.33;18.12
11395;BME280;5753;54.402;10.220;2022-07-24T16:20:11;101552.78;;;45.32;18.96
11395;BME280;5753;54.402;10.220;2022-07-24T16:22:37;101544.78;;;43.77;21.12
11395;BME280;5753;54.402;10.220;2022-07-24T16:25:05;101548.41;;;45.08;19.94
11395;BME280;5753;54.402;10.220;2022-07-24T16:27:32;101548.59;;;47.03;17.78
11395;BME280;5753;54.402;10.220;2022-07-24T16:29:58;101549.16;;;47.83;17.78
11395;BME280;5753;54.402;10.220;2022-07-24T16:32:24;101552.16;;;47.94;17.32
11395;BME280;5753;54.402;10.220;2022-07-24T16:34:50;101535.91;;;47.17;17.81
11395;BME280;5753;54.402;10.220;2022-07-24T16:37:17;101540.72;;;47.15;17.70
11395;BME280;5753;54.402;10.220;2022-07-24T16:39:43;101534.78;;;47.74;17.12
11395;BME280;5753;54.402;10.220;2022-07-24T16:42:10;101535.31;;;48.72;16.26
11395;BME280;5753;54.402;10.220;2022-07-24T16:44:36;101538.91;;;48.79;15.53
11395;BME280;5753;54.402;10.220;2022-07-24T16:47:03;101542.16;;;49.60;14.80
11395;BME280;5753;54.402;10.220;2022-07-24T16:49:29;101529.59;;;48.40;15.82
11395;BME280;5753;54.402;10.220;2022-07-24T16:51:55;101531.59;;;46.23;17.25
11395;BME280;5753;54.402;10.220;2022-07-24T16:54:21;101534.59;;;44.72;19.12
11395;BME280;5753;54.402;10.220;2022-07-24T16:56:47;101529.69;;;44.14;19.54
11395;BME280;5753;54.402;10.220;2022-07-24T16:59:13;101523.47;;;42.52;21.36
11395;BME280;5753;54.402;10.220;2022-07-24T17:01:39;101520.47;;;43.28;20.69
11395;BME280;5753;54.402;10.220;2022-07-24T17:04:06;101533.38;;;43.26;20.68
11395;BME280;5753;54.402;10.220;2022-07-24T17:06:32;101526.03;;;42.46;21.83
11395;BME280;5753;54.402;10.220;2022-07-24T17:08:59;101524.44;;;41.85;22.15
11395;BME280;5753;54.402;10.220;2022-07-24T17:11:25;101525.50;;;42.00;22.29
11395;BME280;5753;54.402;10.220;2022-07-24T17:13:52;101522.19;;;41.46;22.61
11395;BME280;5753;54.402;10.220;2022-07-24T17:16:19;101519.19;;;41.57;22.51
11395;BME280;5753;54.402;10.220;2022-07-24T17:18:45;101512.84;;;42.67;21.24
11395;BME280;5753;54.402;10.220;2022-07-24T17:21:11;101511.63;;;42.86;21.26
11395;BME280;5753;54.402;10.220;2022-07-24T17:23:37;101514.88;;;42.97;20.80
11395;BME280;5753;54.402;10.220;2022-07-24T17:26:05;101517.44;;;42.08;21.36
11395;BME280;5753;54.402;10.220;2022-07-24T17:28:31;101520.25;;;42.49;21.09
11395;BME280;5753;54.402;10.220;2022-07-24T17:30:58;101517.75;;;42.05;21.58